createdAt,value
2022-10-09T00:01:08.340Z,4.47
2022-10-09T00:03:36.903Z,5.60
2022-10-09T00:06:05.277Z,6.70
2022-10-09T00:08:32.934Z,6.43
2022-10-09T00:11:05.835Z,6.50
2022-10-09T00:13:33.577Z,5.00
2022-10-09T00:16:03.751Z,5.65
2022-10-09T00:18:31.926Z,5.57
2022-10-09T00:20:59.627Z,7.60
2022-10-09T00:23:27.583Z,6.18
2022-10-09T00:25:57.075Z,8.20
2022-10-09T00:28:27.488Z,6.60
2022-10-09T00:30:55.323Z,9.30
2022-10-09T00:33:23.620Z,6.90
2022-10-09T00:35:51.474Z,6.95
2022-10-09T00:38:19.142Z,4.65
2022-10-09T00:40:46.832Z,5.90
2022-10-09T00:43:17.340Z,6.57
2022-10-09T00:45:55.512Z,6.93
2022-10-09T00:48:23.746Z,7.03
2022-10-09T00:50:53.485Z,5.85
2022-10-09T00:53:22.835Z,5.50
2022-10-09T00:55:50.611Z,6.85
2022-10-09T00:58:18.284Z,6.45
2022-10-09T01:00:47.459Z,6.78
2022-10-09T01:03:15.157Z,8.95
2022-10-09T01:05:50.035Z,6.05
2022-10-09T01:08:21.503Z,7.03
2022-10-09T01:10:51.634Z,6.00
2022-10-09T01:13:24.535Z,5.97
2022-10-09T01:15:56.256Z,4.30
2022-10-09T01:18:27.293Z,5.93
2022-10-09T01:20:56.569Z,5.35
2022-10-09T01:23:50.061Z,6.63
2022-10-09T01:26:29.863Z,5.05
2022-10-09T01:29:01.361Z,4.80
2022-10-09T01:31:30.993Z,6.90
2022-10-09T01:34:00.558Z,5.47
2022-10-09T01:36:29.293Z,6.97
2022-10-09T01:38:58.776Z,5.53
2022-10-09T01:41:26.972Z,6.50
2022-10-09T01:43:54.560Z,4.32
2022-10-09T01:46:26.595Z,5.20
2022-10-09T01:48:58.961Z,5.80
2022-10-09T01:51:31.288Z,6.00
2022-10-09T01:54:03.285Z,5.57
2022-10-09T01:56:32.153Z,4.72
2022-10-09T01:59:03.117Z,6.38
2022-10-09T02:01:34.175Z,5.05
2022-10-09T02:04:05.002Z,5.03
2022-10-09T02:06:32.920Z,7.88
2022-10-09T02:09:00.783Z,6.35
2022-10-09T02:11:30.859Z,5.70
2022-10-09T02:13:59.585Z,6.25
2022-10-09T02:16:37.410Z,5.25
2022-10-09T02:19:10.881Z,4.65
2022-10-09T02:21:45.090Z,5.00
2022-10-09T02:24:17.919Z,4.93
2022-10-09T02:26:45.562Z,5.13
2022-10-09T02:29:14.081Z,6.40
2022-10-09T02:31:44.280Z,8.00
2022-10-09T02:34:13.619Z,5.50
2022-10-09T02:36:42.004Z,5.68
2022-10-09T02:39:09.673Z,6.82
2022-10-09T02:41:37.370Z,6.88
2022-10-09T02:44:05.873Z,7.95
2022-10-09T02:46:34.150Z,7.00
2022-10-09T02:49:03.340Z,5.60
2022-10-09T02:51:31.026Z,5.60
2022-10-09T02:53:59.551Z,6.80
2022-10-09T02:56:27.471Z,5.82
2022-10-09T02:58:55.576Z,7.50
2022-10-09T03:01:23.468Z,6.30
2022-10-09T03:03:52.067Z,7.72
2022-10-09T03:06:22.876Z,7.50
2022-10-09T03:08:52.078Z,6.35
2022-10-09T03:11:21.198Z,7.18
2022-10-09T03:13:48.911Z,7.03
2022-10-09T03:16:17.963Z,6.40
2022-10-09T03:18:46.123Z,8.23
2022-10-09T03:21:15.541Z,7.13
2022-10-09T03:23:45.279Z,6.55
2022-10-09T03:26:14.455Z,7.10
2022-10-09T03:28:43.552Z,9.05
2022-10-09T03:31:27.416Z,6.82
2022-10-09T03:33:59.431Z,7.90
2022-10-09T03:36:27.108Z,6.05
2022-10-09T03:38:56.073Z,7.10
2022-10-09T03:41:23.785Z,8.70
2022-10-09T03:43:51.461Z,5.93
2022-10-09T03:46:19.135Z,6.70
2022-10-09T03:48:46.802Z,5.30
2022-10-09T03:51:14.424Z,7.53
2022-10-09T03:53:42.102Z,6.53
2022-10-09T03:56:11.170Z,6.90
2022-10-09T03:58:38.811Z,7.85
2022-10-09T04:01:06.569Z,6.27
2022-10-09T04:03:34.228Z,7.80
2022-10-09T04:06:01.820Z,6.97
2022-10-09T04:08:29.420Z,7.75
2022-10-09T04:10:58.522Z,7.93
2022-10-09T04:13:27.784Z,6.95
2022-10-09T04:15:55.788Z,7.55
2022-10-09T04:18:23.796Z,6.75
2022-10-09T04:20:52.050Z,7.47
2022-10-09T04:23:20.127Z,7.50
2022-10-09T04:25:47.940Z,6.80
2022-10-09T04:28:15.651Z,7.38
2022-10-09T04:30:44.723Z,7.22
2022-10-09T04:33:13.192Z,7.35
2022-10-09T04:35:42.973Z,7.05
2022-10-09T04:38:10.673Z,6.63
2022-10-09T04:40:38.755Z,7.05
2022-10-09T04:43:06.367Z,7.38
2022-10-09T04:45:34.109Z,8.52
2022-10-09T04:48:03.171Z,8.32
2022-10-09T04:50:30.794Z,6.85
2022-10-09T04:52:58.502Z,7.53
2022-10-09T04:55:26.197Z,8.52
2022-10-09T04:57:53.838Z,5.93
2022-10-09T05:00:21.483Z,7.32
2022-10-09T05:02:49.660Z,7.80
2022-10-09T05:05:18.917Z,7.60
2022-10-09T05:07:46.477Z,8.85
2022-10-09T05:10:14.083Z,7.95
2022-10-09T05:12:41.788Z,7.00
2022-10-09T05:15:10.221Z,6.55
2022-10-09T05:17:37.972Z,6.57
2022-10-09T05:20:06.193Z,6.30
2022-10-09T05:22:35.267Z,6.72
2022-10-09T05:25:02.911Z,6.00
2022-10-09T05:27:30.546Z,5.77
2022-10-09T05:29:58.199Z,5.78
2022-10-09T05:32:25.835Z,6.70
2022-10-09T05:34:53.509Z,6.32
2022-10-09T05:37:21.161Z,7.32
2022-10-09T05:39:50.158Z,8.50
2022-10-09T05:42:17.845Z,7.82
2022-10-09T05:44:45.393Z,5.55
2022-10-09T05:47:13.643Z,6.72
2022-10-09T05:49:41.256Z,6.90
2022-10-09T05:52:08.854Z,6.30
2022-10-09T05:54:36.539Z,7.13
2022-10-09T05:57:05.641Z,5.40
2022-10-09T05:59:33.277Z,6.00
2022-10-09T06:02:01.023Z,5.63
2022-10-09T06:04:29.110Z,7.10
2022-10-09T06:06:56.718Z,6.60
2022-10-09T06:09:26.085Z,7.55
2022-10-09T06:11:54.589Z,8.13
2022-10-09T06:14:24.445Z,7.18
2022-10-09T06:16:52.563Z,7.72
2022-10-09T06:19:20.987Z,10.05
2022-10-09T06:21:49.178Z,7.07
2022-10-09T06:24:24.307Z,6.75
2022-10-09T06:26:54.844Z,8.27
2022-10-09T06:29:24.125Z,7.15
2022-10-09T06:31:51.745Z,6.45
2022-10-09T06:34:19.369Z,8.05
2022-10-09T06:36:47.050Z,7.35
2022-10-09T06:39:14.671Z,8.90
2022-10-09T06:41:42.413Z,8.48
2022-10-09T06:44:17.336Z,8.85
2022-10-09T06:46:49.595Z,9.32
2022-10-09T06:49:17.309Z,7.60
2022-10-09T06:51:45.133Z,9.90
2022-10-09T06:54:13.857Z,8.27
2022-10-09T06:56:41.750Z,9.48
2022-10-09T06:59:09.754Z,9.30
2022-10-09T07:01:37.544Z,9.10
2022-10-09T07:04:08.214Z,9.52
2022-10-09T07:06:38.651Z,9.40
2022-10-09T07:09:08.813Z,9.82
2022-10-09T07:11:38.074Z,8.80
2022-10-09T07:14:07.554Z,9.27
2022-10-09T07:16:36.461Z,9.50
2022-10-09T07:19:07.410Z,9.20
2022-10-09T07:21:36.875Z,11.07
2022-10-09T07:24:05.644Z,9.50
2022-10-09T07:26:37.754Z,10.80
2022-10-09T07:29:06.134Z,8.95
2022-10-09T07:31:33.734Z,9.83
2022-10-09T07:34:01.717Z,10.77
2022-10-09T07:36:29.519Z,13.15
2022-10-09T07:38:59.803Z,11.07
2022-10-09T07:41:28.992Z,10.98
2022-10-09T07:43:57.130Z,10.27
2022-10-09T07:46:29.595Z,13.68
2022-10-09T07:49:00.089Z,12.73
2022-10-09T07:51:28.958Z,14.83
2022-10-09T07:53:59.989Z,16.23
2022-10-09T07:56:29.228Z,12.50
2022-10-09T07:58:58.140Z,13.32
2022-10-09T08:01:27.864Z,11.80
2022-10-09T08:03:56.045Z,11.77
2022-10-09T08:06:23.766Z,12.75
2022-10-09T08:08:52.074Z,12.27
2022-10-09T08:11:22.174Z,14.23
2022-10-09T08:13:50.576Z,15.27
2022-10-09T08:16:18.881Z,11.15
2022-10-09T08:18:46.640Z,14.95
2022-10-09T08:21:15.923Z,14.18
2022-10-09T08:23:44.229Z,16.40
2022-10-09T08:26:15.555Z,12.70
2022-10-09T08:28:45.781Z,12.30
2022-10-09T08:31:14.259Z,12.93
2022-10-09T08:33:42.576Z,14.10
2022-10-09T08:36:12.061Z,14.07
2022-10-09T08:38:48.199Z,12.40
2022-10-09T08:41:23.014Z,14.35
2022-10-09T08:43:53.738Z,14.80
2022-10-09T08:46:24.499Z,13.13
2022-10-09T08:48:52.877Z,13.77
2022-10-09T08:51:24.430Z,15.60
2022-10-09T08:53:57.409Z,12.40
2022-10-09T08:56:26.553Z,12.30
2022-10-09T08:58:55.618Z,11.57
2022-10-09T09:01:29.959Z,14.02
2022-10-09T09:04:12.468Z,12.00
2022-10-09T09:06:45.132Z,10.50
2022-10-09T09:09:18.522Z,11.70
2022-10-09T09:11:50.605Z,10.95
2022-10-09T09:14:36.067Z,11.13
2022-10-09T09:17:10.002Z,10.80
2022-10-09T09:19:50.023Z,9.73
2022-10-09T09:22:17.805Z,7.33
2022-10-09T09:24:48.798Z,10.83
2022-10-09T09:27:20.175Z,10.43
2022-10-09T09:29:55.826Z,9.60
2022-10-09T09:32:25.477Z,9.07
2022-10-09T09:34:54.959Z,10.70
2022-10-09T09:37:23.893Z,5.78
2022-10-09T09:40:35.119Z,8.40
2022-10-09T09:42:39.327Z,9.20
2022-10-09T09:45:14.166Z,9.00
2022-10-09T09:47:45.250Z,7.80
2022-10-09T09:50:35.010Z,8.07
2022-10-09T09:53:03.075Z,9.52
2022-10-09T09:55:32.521Z,9.85
2022-10-09T09:58:01.962Z,10.47
2022-10-09T10:00:31.169Z,6.35
2022-10-09T10:03:14.436Z,7.30
2022-10-09T10:05:43.357Z,8.10
2022-10-09T10:08:15.144Z,7.90
2022-10-09T10:10:47.693Z,5.97
2022-10-09T10:13:17.806Z,5.50
2022-10-09T10:15:52.856Z,11.67
2022-10-09T10:18:21.245Z,4.47
2022-10-09T10:20:50.703Z,5.30
2022-10-09T10:23:27.618Z,6.82
2022-10-09T10:25:56.879Z,7.03
2022-10-09T10:28:29.450Z,4.87
2022-10-09T10:31:02.300Z,6.07
2022-10-09T10:33:33.165Z,6.80
2022-10-09T10:36:01.244Z,7.13
2022-10-09T10:38:33.684Z,6.72
2022-10-09T10:41:09.839Z,4.90
2022-10-09T10:43:42.899Z,5.00
2022-10-09T10:46:17.126Z,5.70
2022-10-09T10:48:47.078Z,4.20
2022-10-09T10:51:30.568Z,5.20
2022-10-09T10:54:07.847Z,4.50
2022-10-09T10:56:38.474Z,5.18
2022-10-09T10:59:26.784Z,6.00
2022-10-09T11:02:06.665Z,4.25
2022-10-09T11:04:38.434Z,5.68
2022-10-09T11:07:13.021Z,3.67
2022-10-09T11:09:46.494Z,5.50
2022-10-09T11:12:30.091Z,5.72
2022-10-09T11:15:10.769Z,4.68
2022-10-09T11:17:47.261Z,4.00
2022-10-09T11:20:43.874Z,4.20
2022-10-09T11:23:16.529Z,4.28
2022-10-09T11:25:51.772Z,4.75
2022-10-09T11:28:22.047Z,5.85
2022-10-09T11:30:53.508Z,5.35
2022-10-09T11:33:30.777Z,4.57
2022-10-09T11:36:02.467Z,4.87
2022-10-09T11:38:33.473Z,5.28
2022-10-09T11:41:06.421Z,3.60
2022-10-09T11:43:44.956Z,5.85
2022-10-09T11:46:19.204Z,3.67
2022-10-09T11:48:51.567Z,3.45
2022-10-09T11:51:25.726Z,3.50
2022-10-09T11:53:54.426Z,15.20
2022-10-09T11:56:24.266Z,5.88
2022-10-09T11:58:59.802Z,4.40
2022-10-09T12:01:30.776Z,6.00
2022-10-09T12:04:05.852Z,7.85
2022-10-09T12:06:33.894Z,7.13
2022-10-09T12:09:03.487Z,4.90
2022-10-09T12:11:32.169Z,3.83
2022-10-09T12:14:02.150Z,4.60
2022-10-09T12:16:39.988Z,6.15
2022-10-09T12:19:23.259Z,5.38
2022-10-09T12:21:55.420Z,4.10
2022-10-09T12:24:25.498Z,6.17
2022-10-09T12:26:55.201Z,7.53
2022-10-09T12:29:28.596Z,4.47
2022-10-09T12:32:00.312Z,4.50
2022-10-09T12:34:32.015Z,6.13
2022-10-09T12:37:12.750Z,5.15
2022-10-09T12:39:40.822Z,4.57
2022-10-09T12:42:15.465Z,6.07
2022-10-09T12:44:43.164Z,4.88
2022-10-09T12:47:21.217Z,5.65
2022-10-09T12:50:00.743Z,5.80
2022-10-09T12:52:29.216Z,4.68
2022-10-09T12:54:56.957Z,5.17
2022-10-09T12:57:27.726Z,7.05
2022-10-09T12:59:56.413Z,4.45
2022-10-09T13:02:24.208Z,5.65
2022-10-09T13:05:02.148Z,4.45
2022-10-09T13:07:32.327Z,4.82
2022-10-09T13:10:03.671Z,4.72
2022-10-09T13:12:32.269Z,5.45
2022-10-09T13:15:01.152Z,6.75
2022-10-09T13:17:34.654Z,9.45
2022-10-09T13:20:05.624Z,4.78
2022-10-09T13:22:35.088Z,5.18
2022-10-09T13:25:04.110Z,5.17
2022-10-09T13:27:34.352Z,6.50
2022-10-09T13:30:02.472Z,4.63
2022-10-09T13:32:30.964Z,3.05
2022-10-09T13:34:58.565Z,3.60
2022-10-09T13:37:28.050Z,5.82
2022-10-09T13:39:57.273Z,3.40
2022-10-09T13:42:26.629Z,5.50
2022-10-09T13:44:54.837Z,5.07
2022-10-09T13:47:24.609Z,4.03
2022-10-09T13:49:52.690Z,4.20
2022-10-09T13:52:20.359Z,2.80
2022-10-09T13:54:49.518Z,3.40
2022-10-09T13:57:17.149Z,5.30
2022-10-09T13:59:44.849Z,3.60
2022-10-09T14:02:13.039Z,3.80
2022-10-09T14:04:41.115Z,5.05
2022-10-09T14:07:09.018Z,3.33
2022-10-09T14:09:36.886Z,3.78
2022-10-09T14:12:05.939Z,3.70
2022-10-09T14:14:33.694Z,3.58
2022-10-09T14:17:01.370Z,6.03
2022-10-09T14:19:29.001Z,4.72
2022-10-09T14:21:57.131Z,2.88
2022-10-09T14:24:25.530Z,3.72
2022-10-09T14:26:53.128Z,4.65
2022-10-09T14:29:22.162Z,4.72
2022-10-09T14:31:50.954Z,4.95
2022-10-09T14:34:18.679Z,8.15
2022-10-09T14:36:46.475Z,2.80
2022-10-09T14:39:14.155Z,2.60
2022-10-09T14:41:41.807Z,8.73
2022-10-09T14:44:10.976Z,3.57
2022-10-09T14:46:40.019Z,4.23
2022-10-09T14:49:08.605Z,5.47
2022-10-09T14:51:39.355Z,3.55
2022-10-09T14:54:08.220Z,4.05
2022-10-09T14:56:36.588Z,2.60
2022-10-09T14:59:05.852Z,1.83
2022-10-09T15:01:34.089Z,3.38
2022-10-09T15:04:03.924Z,5.43
2022-10-09T15:06:31.850Z,4.17
2022-10-09T15:09:04.593Z,3.00
2022-10-09T15:11:34.276Z,3.05
2022-10-09T15:14:01.984Z,2.45
2022-10-09T15:16:29.634Z,2.77
2022-10-09T15:18:58.241Z,3.60
2022-10-09T15:21:29.779Z,2.00
2022-10-09T15:23:59.235Z,3.08
2022-10-09T15:26:28.222Z,3.38
2022-10-09T15:28:55.936Z,2.03
2022-10-09T15:31:26.059Z,3.45
2022-10-09T15:33:54.864Z,2.15
2022-10-09T15:36:23.398Z,2.23
2022-10-09T15:38:52.450Z,3.25
2022-10-09T15:41:21.518Z,3.40
2022-10-09T15:43:49.788Z,4.20
2022-10-09T15:46:17.808Z,3.42
2022-10-09T15:48:45.718Z,3.53
2022-10-09T15:51:13.971Z,2.20
2022-10-09T15:53:42.624Z,2.75
2022-10-09T15:56:17.980Z,3.25
2022-10-09T15:58:45.794Z,1.98
2022-10-09T16:01:14.846Z,4.35
2022-10-09T16:03:42.924Z,4.80
2022-10-09T16:06:12.773Z,3.67
2022-10-09T16:08:40.960Z,4.85
2022-10-09T16:11:13.006Z,3.20
2022-10-09T16:13:42.676Z,6.03
2022-10-09T16:16:13.418Z,3.53
2022-10-09T16:18:41.059Z,3.72
2022-10-09T16:21:10.002Z,1.85
2022-10-09T16:23:37.862Z,3.13
2022-10-09T16:26:06.012Z,2.60
2022-10-09T16:28:35.643Z,2.42
2022-10-09T16:31:03.771Z,3.63
2022-10-09T16:33:31.512Z,3.80
2022-10-09T16:36:09.633Z,3.85
2022-10-09T16:38:37.988Z,3.05
2022-10-09T16:41:08.968Z,3.80
2022-10-09T16:43:38.479Z,2.30
2022-10-09T16:46:10.668Z,2.63
2022-10-09T16:48:38.320Z,3.80
2022-10-09T16:51:09.490Z,4.78
2022-10-09T16:53:37.256Z,6.13
2022-10-09T16:56:09.739Z,4.53
2022-10-09T16:58:38.862Z,7.93
2022-10-09T17:01:09.938Z,6.53
2022-10-09T17:03:40.288Z,6.00
2022-10-09T17:06:09.625Z,6.20
2022-10-09T17:08:37.325Z,5.28
2022-10-09T17:11:08.653Z,4.88
2022-10-09T17:13:38.044Z,5.68
2022-10-09T17:16:06.809Z,5.43
2022-10-09T17:18:35.208Z,5.53
2022-10-09T17:21:04.164Z,5.70
2022-10-09T17:23:31.973Z,7.65
2022-10-09T17:26:00.376Z,7.05
2022-10-09T17:28:28.087Z,8.60
2022-10-09T17:30:57.306Z,8.20
2022-10-09T17:33:24.931Z,5.47
2022-10-09T17:35:52.522Z,7.07
2022-10-09T17:38:20.153Z,6.07
2022-10-09T17:40:47.791Z,5.38
2022-10-09T17:43:15.438Z,6.55
2022-10-09T17:45:46.775Z,7.00
2022-10-09T17:48:15.983Z,9.00
2022-10-09T17:50:51.871Z,7.18
2022-10-09T17:53:19.616Z,8.30
2022-10-09T17:55:47.230Z,9.98
2022-10-09T17:58:14.828Z,12.60
2022-10-09T18:00:42.742Z,14.85
2022-10-09T18:03:10.667Z,14.33
2022-10-09T18:05:42.685Z,15.52
2022-10-09T18:08:10.366Z,19.75
2022-10-09T18:10:38.102Z,21.33
2022-10-09T18:13:06.019Z,24.50
2022-10-09T18:15:37.703Z,29.67
2022-10-09T18:18:05.481Z,25.52
2022-10-09T18:20:34.577Z,20.92
2022-10-09T18:23:03.745Z,9.70
2022-10-09T18:25:31.706Z,7.30
2022-10-09T18:28:00.276Z,6.63
2022-10-09T18:30:28.612Z,7.88
2022-10-09T18:32:56.292Z,7.10
2022-10-09T18:35:25.490Z,7.90
2022-10-09T18:37:53.329Z,7.38
2022-10-09T18:40:22.422Z,6.82
2022-10-09T18:42:50.405Z,11.23
2022-10-09T18:45:18.140Z,8.18
2022-10-09T18:47:46.085Z,8.27
2022-10-09T18:50:14.729Z,10.65
2022-10-09T18:52:42.968Z,10.32
2022-10-09T18:55:12.196Z,11.38
2022-10-09T18:57:41.913Z,13.75
2022-10-09T19:00:10.668Z,16.52
2022-10-09T19:05:11.171Z,16.27
2022-10-09T19:07:38.884Z,21.58
2022-10-09T19:10:07.747Z,24.65
2022-10-09T19:12:35.712Z,20.13
2022-10-09T19:15:11.043Z,18.55
2022-10-09T19:17:39.695Z,20.48
2022-10-09T19:20:08.237Z,16.90
2022-10-09T19:22:35.948Z,19.08
2022-10-09T19:25:03.769Z,19.00
2022-10-09T19:27:32.491Z,15.32
2022-10-09T19:30:00.990Z,14.05
2022-10-09T19:32:30.903Z,11.00
2022-10-09T19:34:58.661Z,11.35
2022-10-09T19:37:29.047Z,9.70
2022-10-09T19:39:57.980Z,9.15
2022-10-09T19:42:25.754Z,9.40
2022-10-09T19:44:53.351Z,9.60
2022-10-09T19:47:21.983Z,7.93
2022-10-09T19:49:51.042Z,6.65
2022-10-09T19:52:18.706Z,7.95
2022-10-09T19:54:46.400Z,7.10
2022-10-09T19:57:14.056Z,6.95
2022-10-09T19:59:41.640Z,7.57
2022-10-09T20:04:14.002Z,7.30
2022-10-09T20:06:43.010Z,8.23
2022-10-09T20:09:12.304Z,5.70
2022-10-09T20:12:34.234Z,7.23
2022-10-09T20:15:01.850Z,4.63
2022-10-09T20:17:29.783Z,7.57
2022-10-09T20:19:57.533Z,9.00
2022-10-09T20:22:25.262Z,4.72
2022-10-09T20:24:53.394Z,7.45
2022-10-09T20:27:21.074Z,6.07
2022-10-09T20:29:50.168Z,4.25
2022-10-09T20:32:18.491Z,4.47
2022-10-09T20:34:46.109Z,5.07
2022-10-09T20:37:13.830Z,5.33
2022-10-09T20:39:41.387Z,4.00
2022-10-09T20:42:09.009Z,3.87
2022-10-09T20:44:36.704Z,2.88
2022-10-09T20:47:05.814Z,3.85
2022-10-09T20:49:33.492Z,5.82
2022-10-09T20:52:01.214Z,4.97
2022-10-09T20:54:30.355Z,6.18
2022-10-09T20:56:59.350Z,5.20
2022-10-09T20:59:27.014Z,4.57
2022-10-09T21:01:54.628Z,4.97
2022-10-09T21:04:23.744Z,5.63
2022-10-09T21:06:51.333Z,5.07
2022-10-09T21:09:18.962Z,4.97
2022-10-09T21:11:46.704Z,4.38
2022-10-09T21:14:14.348Z,4.10
2022-10-09T21:16:42.146Z,4.13
2022-10-09T21:19:12.074Z,3.33
2022-10-09T21:21:41.086Z,4.80
2022-10-09T21:24:08.727Z,5.00
2022-10-09T21:26:36.443Z,4.70
2022-10-09T21:29:04.931Z,3.67
2022-10-09T21:31:33.237Z,3.63
2022-10-09T21:34:01.737Z,3.95
2022-10-09T21:36:35.754Z,3.38
2022-10-09T21:39:06.197Z,4.72
2022-10-09T21:41:33.984Z,3.67
2022-10-09T21:44:01.936Z,4.18
2022-10-09T21:46:29.774Z,3.83
2022-10-09T21:48:57.688Z,5.45
2022-10-09T21:51:25.787Z,4.78
2022-10-09T21:53:54.303Z,4.00
2022-10-09T21:56:24.077Z,2.60
2022-10-09T21:58:51.942Z,5.22
2022-10-09T22:01:19.719Z,3.87
2022-10-09T22:03:47.486Z,3.88
2022-10-09T22:06:19.216Z,3.55
2022-10-09T22:08:47.899Z,3.17
2022-10-09T22:11:16.321Z,2.72
2022-10-09T22:13:45.449Z,3.75
2022-10-09T22:16:15.290Z,3.05
2022-10-09T22:18:43.162Z,2.60
2022-10-09T22:21:13.102Z,4.85
2022-10-09T22:23:41.247Z,3.85
2022-10-09T22:26:13.164Z,3.83
2022-10-09T22:28:40.867Z,4.07
2022-10-09T22:31:12.522Z,4.00
2022-10-09T22:33:40.295Z,3.00
2022-10-09T22:36:10.170Z,4.27
2022-10-09T22:38:38.684Z,4.32
2022-10-09T22:41:08.811Z,3.45
2022-10-09T22:43:37.137Z,4.80
2022-10-09T22:46:11.990Z,3.58
2022-10-09T22:48:39.901Z,4.30
2022-10-09T22:51:09.131Z,3.45
2022-10-09T22:53:37.564Z,3.10
2022-10-09T22:56:06.261Z,3.57
2022-10-09T22:58:33.983Z,3.67
2022-10-09T23:01:04.376Z,3.20
2022-10-09T23:03:33.631Z,4.88
2022-10-09T23:06:09.473Z,3.45
2022-10-09T23:08:38.664Z,3.13
2022-10-09T23:11:06.402Z,3.15
2022-10-09T23:13:34.151Z,3.92
2022-10-09T23:16:02.138Z,4.30
2022-10-09T23:18:30.432Z,3.35
2022-10-09T23:20:59.590Z,4.75
2022-10-09T23:23:29.048Z,2.97
2022-10-09T23:25:56.761Z,5.65
2022-10-09T23:28:26.491Z,5.43
2022-10-09T23:30:54.211Z,3.85
2022-10-09T23:33:21.812Z,3.45
2022-10-09T23:35:49.462Z,4.35
2022-10-09T23:38:18.424Z,3.15
2022-10-09T23:40:55.810Z,4.30
2022-10-09T23:43:23.526Z,3.30
2022-10-09T23:45:51.294Z,4.05
2022-10-09T23:48:19.169Z,5.35
2022-10-09T23:50:48.933Z,4.32
2022-10-09T23:53:18.366Z,4.60
2022-10-09T23:55:46.603Z,4.82
2022-10-09T23:58:19.834Z,3.50
